createdAt,value
2018-05-25T03:01:04.395Z,96.99
2018-05-25T03:02:05.325Z,96.70
2018-05-25T03:03:05.496Z,96.89
2018-05-25T03:04:05.831Z,96.61
2018-05-25T03:05:09.306Z,96.70
2018-05-25T03:06:05.875Z,96.32
2018-05-25T03:07:05.797Z,97.28
2018-05-25T03:08:06.970Z,97.09
2018-05-25T03:09:06.606Z,97.09
2018-05-25T03:10:46.311Z,97.09
2018-05-25T03:13:09.782Z,97.18
2018-05-25T03:17:50.011Z,97.09
2018-05-25T03:18:50.870Z,97.28
2018-05-25T03:20:48.324Z,96.51
2018-05-25T03:21:48.376Z,96.70
2018-05-25T03:22:48.528Z,96.89
2018-05-25T03:23:48.778Z,96.70
2018-05-25T03:24:48.857Z,96.56
2018-05-25T03:25:49.009Z,97.09
2018-05-25T03:26:49.339Z,96.99
2018-05-25T03:27:49.414Z,97.09
2018-05-25T03:28:49.521Z,97.09
2018-05-25T03:29:49.747Z,97.28
2018-05-25T03:30:49.910Z,97.09
2018-05-25T03:31:50.153Z,97.33
2018-05-25T03:32:50.265Z,97.28
2018-05-25T03:33:50.570Z,97.38
2018-05-25T03:34:50.682Z,97.09
2018-05-25T03:35:50.795Z,97.04
2018-05-25T03:36:51.067Z,97.04
2018-05-25T03:37:51.227Z,97.04
2018-05-25T03:38:51.314Z,97.38
2018-05-25T03:39:51.566Z,97.14
2018-05-25T03:40:51.711Z,97.52
2018-05-25T03:41:51.868Z,97.04
2018-05-25T03:42:52.020Z,96.94
2018-05-25T03:43:52.207Z,96.94
2018-05-25T03:44:52.346Z,97.04
2018-05-25T03:45:52.529Z,97.42
2018-05-25T03:46:52.751Z,97.23
2018-05-25T03:47:52.843Z,97.23
2018-05-25T03:48:53.092Z,96.94
2018-05-25T03:49:53.219Z,96.75
2018-05-25T03:50:53.380Z,97.23
2018-05-25T03:51:53.623Z,97.33
2018-05-25T03:52:53.708Z,97.33
2018-05-25T03:53:54.738Z,97.14
2018-05-25T03:54:54.104Z,97.71
2018-05-25T03:55:54.468Z,97.23
2018-05-25T03:56:54.461Z,97.23
2018-05-25T03:57:54.662Z,97.61
2018-05-25T03:58:54.785Z,97.33
2018-05-25T03:59:54.960Z,97.33
2018-05-25T04:00:55.052Z,97.52
2018-05-25T04:01:55.348Z,97.04
2018-05-25T04:02:55.385Z,97.61
2018-05-25T04:03:55.687Z,97.33
2018-05-25T04:04:55.716Z,96.94
2018-05-25T04:05:55.933Z,96.47
2018-05-25T04:06:56.157Z,97.09
2018-05-25T04:07:56.255Z,96.94
2018-05-25T04:08:56.479Z,97.28
2018-05-25T04:09:56.613Z,97.18
2018-05-25T04:10:56.813Z,96.80
2018-05-25T04:11:56.923Z,96.80
2018-05-25T04:12:57.128Z,97.09
2018-05-25T04:13:57.228Z,97.18
2018-05-25T04:14:57.367Z,96.80
2018-05-25T04:15:57.558Z,97.18
2018-05-25T04:16:57.784Z,97.09
2018-05-25T04:17:57.996Z,96.80
2018-05-25T04:18:58.133Z,96.99
2018-05-25T04:19:58.268Z,96.70
2018-05-25T04:20:58.424Z,97.09
2018-05-25T04:21:58.633Z,96.99
2018-05-25T04:22:58.938Z,96.70
2018-05-25T04:23:58.971Z,97.09
2018-05-25T04:24:59.117Z,97.09
2018-05-25T04:25:59.326Z,96.70
2018-05-25T04:26:59.420Z,96.80
2018-05-25T04:27:59.636Z,97.28
2018-05-25T04:28:59.802Z,97.18
2018-05-25T04:29:59.920Z,96.80
2018-05-25T04:31:00.147Z,97.09
2018-05-25T04:32:00.336Z,97.47
2018-05-25T04:33:00.440Z,97.47
2018-05-25T04:34:00.583Z,96.80
2018-05-25T04:35:00.758Z,96.99
2018-05-25T04:36:00.937Z,97.47
2018-05-25T04:37:01.126Z,97.18
2018-05-25T04:38:01.300Z,96.51
2018-05-25T04:39:01.443Z,96.99
2018-05-25T04:40:01.686Z,97.09
2018-05-25T04:41:01.807Z,97.09
2018-05-25T04:42:02.044Z,97.66
2018-05-25T04:43:02.189Z,97.38
2018-05-25T04:44:02.307Z,97.38
2018-05-25T04:45:02.517Z,97.09
2018-05-25T04:46:02.743Z,96.89
2018-05-25T04:47:03.645Z,97.38
2018-05-25T04:48:02.969Z,97.18
2018-05-25T04:49:03.122Z,97.47
2018-05-25T04:50:03.272Z,97.95
2018-05-25T04:51:03.469Z,97.56
2018-05-25T04:52:03.620Z,97.66
2018-05-25T04:53:03.814Z,97.95
2018-05-25T04:54:04.003Z,98.14
2018-05-25T04:55:04.168Z,97.56
2018-05-25T04:56:04.350Z,97.38
2018-05-25T04:57:04.445Z,97.56
2018-05-25T04:58:04.575Z,97.38
2018-05-25T04:59:04.714Z,97.28
2018-05-25T05:00:04.933Z,97.18
2018-05-25T05:01:05.164Z,97.09
2018-05-25T05:02:05.241Z,97.18
2018-05-25T05:03:05.430Z,96.51
2018-05-25T05:04:05.616Z,96.32
2018-05-25T05:05:05.767Z,96.80
2018-05-25T05:06:05.985Z,96.75
2018-05-25T05:07:06.082Z,96.99
2018-05-25T05:08:06.222Z,96.75
2018-05-25T05:09:06.451Z,96.47
2018-05-25T05:10:06.562Z,96.66
2018-05-25T05:11:06.764Z,96.37
2018-05-25T05:12:06.949Z,96.08
2018-05-25T05:13:07.107Z,96.37
2018-05-25T05:14:07.190Z,95.79
2018-05-25T05:15:07.461Z,95.60
2018-05-25T05:16:07.674Z,95.60
2018-05-25T05:17:07.796Z,95.51
2018-05-25T05:18:07.957Z,95.51
2018-05-25T05:19:08.165Z,95.70
2018-05-25T05:20:08.218Z,94.93
2018-05-25T05:21:08.416Z,95.41
2018-05-25T05:22:08.539Z,95.12
2018-05-25T05:23:08.780Z,95.03
2018-05-25T05:24:08.974Z,95.31
2018-05-25T05:25:09.093Z,94.84
2018-05-25T05:26:09.268Z,95.03
2018-05-25T05:27:09.472Z,94.88
2018-05-25T05:28:09.631Z,94.31
2018-05-25T05:29:09.803Z,94.59
2018-05-25T05:30:10.013Z,94.21
2018-05-25T05:31:10.124Z,95.17
2018-05-25T05:32:10.367Z,94.59
2018-05-25T05:33:10.453Z,94.49
2018-05-25T05:34:10.653Z,94.31
2018-05-25T05:35:10.806Z,94.49
2018-05-25T05:36:11.002Z,94.79
2018-05-25T05:37:11.106Z,94.49
2018-05-25T05:38:11.248Z,94.59
2018-05-25T05:39:11.431Z,94.12
2018-05-25T05:40:11.645Z,94.21
2018-05-25T05:41:11.787Z,94.12
2018-05-25T05:42:11.989Z,94.40
2018-05-25T05:43:12.127Z,94.59
2018-05-25T05:44:12.341Z,94.40
2018-05-25T05:45:12.502Z,94.21
2018-05-25T05:46:12.597Z,93.92
2018-05-25T05:47:12.884Z,93.63
2018-05-25T05:48:12.982Z,93.54
2018-05-25T05:49:13.149Z,93.15
2018-05-25T05:50:13.261Z,93.82
2018-05-25T05:51:13.427Z,92.86
2018-05-25T05:52:13.656Z,92.82
2018-05-25T05:53:13.767Z,92.96
2018-05-25T05:54:14.034Z,93.06
2018-05-25T05:55:14.109Z,93.25
2018-05-25T05:56:14.353Z,93.01
2018-05-25T05:57:14.460Z,93.59
2018-05-25T05:58:14.685Z,93.68
2018-05-25T05:59:14.788Z,92.91
2018-05-25T06:00:14.920Z,92.86
2018-05-25T06:01:15.238Z,93.01
2018-05-25T06:02:15.356Z,93.01
2018-05-25T06:03:15.469Z,92.82
2018-05-25T06:04:15.668Z,92.72
2018-05-25T06:05:15.859Z,93.10
2018-05-25T06:06:16.014Z,93.10
2018-05-25T06:07:16.146Z,92.82
2018-05-25T06:08:16.335Z,92.57
2018-05-25T06:09:16.450Z,92.00
2018-05-25T06:10:16.633Z,90.94
2018-05-25T06:11:16.857Z,90.46
2018-05-25T06:12:17.007Z,90.27
2018-05-25T06:13:17.087Z,90.17
2018-05-25T06:14:17.325Z,89.40
2018-05-25T06:15:17.473Z,88.83
2018-05-25T06:16:17.625Z,89.40
2018-05-25T06:17:17.801Z,89.36
2018-05-25T06:18:17.943Z,88.97
2018-05-25T06:19:18.156Z,89.16
2018-05-25T06:20:18.262Z,88.87
2018-05-25T06:21:18.396Z,87.82
2018-05-25T06:22:18.617Z,89.21
2018-05-25T06:23:18.815Z,89.78
2018-05-25T06:24:18.960Z,89.11
2018-05-25T06:25:19.155Z,88.82
2018-05-25T06:26:19.274Z,88.53
2018-05-25T06:27:19.405Z,89.21
2018-05-25T06:28:19.663Z,87.86
2018-05-25T06:29:19.853Z,86.22
2018-05-25T06:30:19.948Z,86.80
2018-05-25T06:31:20.103Z,87.09
2018-05-25T06:32:20.243Z,87.86
2018-05-25T06:33:20.403Z,87.76
2018-05-25T06:34:20.642Z,88.24
2018-05-25T06:35:20.767Z,86.90
2018-05-25T06:36:20.927Z,86.61
2018-05-25T06:37:21.169Z,86.85
2018-05-25T06:38:21.223Z,86.32
2018-05-25T06:39:21.460Z,87.09
2018-05-25T06:40:21.622Z,87.19
2018-05-25T06:41:21.740Z,85.65
2018-05-25T06:42:21.854Z,86.52
2018-05-25T06:43:22.065Z,86.61
2018-05-25T06:44:22.248Z,86.18
2018-05-25T06:45:22.357Z,85.69
2018-05-25T06:46:22.578Z,85.88
2018-05-25T06:47:22.798Z,86.18
2018-05-25T06:48:22.894Z,86.36
2018-05-25T06:49:23.146Z,85.65
2018-05-25T06:50:23.275Z,85.11
2018-05-25T06:51:23.422Z,85.21
2018-05-25T06:52:23.601Z,86.08
2018-05-25T06:53:23.810Z,85.31
2018-05-25T06:54:24.014Z,84.06
2018-05-25T06:55:24.153Z,84.29
2018-05-25T06:56:24.261Z,84.10
2018-05-25T06:57:24.380Z,84.48
2018-05-25T06:58:24.640Z,82.27
2018-05-25T06:59:24.833Z,84.83
2018-05-25T07:00:24.988Z,84.97
2018-05-25T07:01:25.143Z,84.39
2018-05-25T07:02:25.284Z,84.19
2018-05-25T07:03:25.497Z,83.52
2018-05-25T07:04:25.651Z,83.04
2018-05-25T07:05:25.732Z,83.42
2018-05-25T07:06:26.002Z,83.52
2018-05-25T07:07:26.148Z,82.65
2018-05-25T07:08:26.295Z,83.47
2018-05-25T07:09:26.477Z,84.33
2018-05-25T07:10:26.630Z,83.31
2018-05-25T07:11:26.863Z,82.93
2018-05-25T07:12:27.029Z,81.91
2018-05-25T07:13:27.146Z,81.33
2018-05-25T07:14:27.331Z,79.60
2018-05-25T07:15:27.467Z,81.24
2018-05-25T07:16:27.706Z,78.54
2018-05-25T07:17:27.863Z,77.76
2018-05-25T07:18:27.910Z,77.76
2018-05-25T07:19:28.144Z,77.61
2018-05-25T07:20:28.262Z,78.29
2018-05-25T07:21:28.421Z,78.77
2018-05-25T07:22:28.595Z,79.06
2018-05-25T07:23:28.793Z,79.39
2018-05-25T07:24:28.909Z,79.77
2018-05-25T07:25:29.202Z,77.59
2018-05-25T07:26:29.238Z,75.82
2018-05-25T07:27:29.466Z,76.24
2018-05-25T07:28:29.671Z,76.63
2018-05-25T07:29:29.895Z,74.35
2018-05-25T07:30:30.038Z,74.44
2018-05-25T07:31:30.172Z,73.28
2018-05-25T07:32:30.277Z,72.22
2018-05-25T07:33:30.501Z,73.96
2018-05-25T07:34:30.683Z,73.13
2018-05-25T07:35:30.787Z,73.80
2018-05-25T07:36:31.044Z,73.22
2018-05-25T07:37:31.135Z,73.32
2018-05-25T07:38:31.382Z,71.78
2018-05-25T07:39:31.474Z,71.58
2018-05-25T07:40:31.735Z,71.74
2018-05-25T07:41:31.874Z,72.71
2018-05-25T07:42:32.001Z,72.71
2018-05-25T07:43:32.137Z,74.16
2018-05-25T07:44:32.380Z,73.09
2018-05-25T07:45:32.442Z,73.15
2018-05-25T07:46:32.704Z,75.09
2018-05-25T07:47:32.876Z,74.12
2018-05-25T07:48:32.956Z,75.37
2018-05-25T07:49:33.166Z,76.34
2018-05-25T07:50:33.346Z,75.95
2018-05-25T07:51:33.560Z,75.53
2018-05-25T07:52:33.639Z,75.09
2018-05-25T07:53:33.818Z,74.31
2018-05-25T07:54:34.026Z,74.31
2018-05-25T07:55:34.211Z,73.44
2018-05-25T07:56:34.344Z,73.63
2018-05-25T07:57:34.564Z,75.09
2018-05-25T07:58:34.667Z,75.76
2018-05-25T07:59:34.905Z,75.57
2018-05-25T08:00:35.013Z,75.37
2018-05-25T08:01:35.242Z,75.60
2018-05-25T08:02:35.379Z,73.15
2018-05-25T08:03:35.573Z,73.93
2018-05-25T08:04:35.796Z,74.21
2018-05-25T08:05:35.904Z,74.44
2018-05-25T08:06:36.089Z,75.22
2018-05-25T08:07:36.234Z,73.09
2018-05-25T08:08:36.422Z,72.64
2018-05-25T08:09:36.553Z,71.97
2018-05-25T08:10:36.698Z,71.39
2018-05-25T08:11:36.885Z,71.04
2018-05-25T08:12:37.042Z,71.72
2018-05-25T08:13:37.243Z,70.82
2018-05-25T08:14:37.434Z,68.63
2018-05-25T08:15:37.619Z,67.02
2018-05-25T08:16:37.782Z,66.14
2018-05-25T08:17:37.895Z,65.75
2018-05-25T08:18:38.124Z,65.85
2018-05-25T08:19:38.251Z,65.98
2018-05-25T08:20:38.470Z,64.92
2018-05-25T08:21:38.607Z,63.07
2018-05-25T08:22:38.813Z,63.40
2018-05-25T08:23:38.981Z,64.85
2018-05-25T08:24:39.102Z,63.78
2018-05-25T08:25:39.319Z,64.37
2018-05-25T08:26:39.452Z,64.01
2018-05-25T08:27:39.738Z,63.72
2018-05-25T08:28:39.854Z,61.04
2018-05-25T08:29:39.974Z,60.71
2018-05-25T08:30:40.255Z,60.52
2018-05-25T08:31:40.375Z,61.42
2018-05-25T08:32:40.530Z,62.59
2018-05-25T08:33:40.662Z,61.81
2018-05-25T08:34:40.910Z,61.71
2018-05-25T08:35:41.077Z,62.85
2018-05-25T08:36:41.268Z,62.43
2018-05-25T08:37:41.436Z,63.46
2018-05-25T08:38:41.677Z,63.34
2018-05-25T08:39:41.751Z,64.20
2018-05-25T08:40:41.955Z,65.82
2018-05-25T08:41:42.083Z,67.63
2018-05-25T08:42:42.284Z,67.43
2018-05-25T08:43:42.411Z,67.53
2018-05-25T08:44:42.630Z,67.98
2018-05-25T08:45:42.721Z,67.98
2018-05-25T08:46:42.940Z,68.62
2018-05-25T08:47:43.136Z,70.65
2018-05-25T08:48:43.215Z,70.36
2018-05-25T08:49:43.419Z,70.07
2018-05-25T08:50:43.618Z,70.42
2018-05-25T08:51:43.780Z,70.32
2018-05-25T08:52:43.991Z,70.72
2018-05-25T08:53:44.148Z,70.04
2018-05-25T08:54:44.259Z,72.45
2018-05-25T08:55:44.456Z,72.36
2018-05-25T08:56:44.593Z,70.52
2018-05-25T08:57:44.812Z,71.04
2018-05-25T08:58:44.905Z,70.78
2018-05-25T08:59:45.147Z,68.56
2018-05-25T09:00:45.267Z,69.75
2018-05-25T09:01:45.416Z,68.24
2018-05-25T09:02:45.679Z,69.43
2018-05-25T09:03:45.800Z,64.89
2018-05-25T09:04:45.979Z,65.56
2018-05-25T09:05:46.146Z,65.95
2018-05-25T09:06:46.283Z,66.72
2018-05-25T09:07:46.489Z,68.08
2018-05-25T09:08:46.571Z,65.34
2018-05-25T09:09:46.811Z,65.47
2018-05-25T09:10:46.951Z,64.47
2018-05-25T09:11:47.096Z,66.34
2018-05-25T09:12:47.278Z,63.62
2018-05-25T09:13:47.472Z,63.72
2018-05-25T09:14:47.663Z,63.37
2018-05-25T09:15:47.769Z,62.01
2018-05-25T09:16:48.027Z,61.52
2018-05-25T09:17:48.095Z,63.88
2018-05-25T09:18:48.304Z,63.20
2018-05-25T09:19:48.501Z,61.26
2018-05-25T09:20:48.718Z,61.39
2018-05-25T09:21:48.884Z,61.10
2018-05-25T09:22:49.070Z,60.78
2018-05-25T09:23:49.205Z,60.65
2018-05-25T09:24:49.284Z,62.17
2018-05-25T09:25:49.468Z,63.11
2018-05-25T09:26:49.681Z,65.72
2018-05-25T09:27:49.869Z,65.82
2018-05-25T09:28:50.102Z,67.91
2018-05-25T09:29:50.209Z,64.53
2018-05-25T09:30:50.436Z,64.14
2018-05-25T09:31:50.565Z,63.79
2018-05-25T09:32:50.728Z,63.82
2018-05-25T09:33:50.853Z,65.95
2018-05-25T09:34:51.070Z,64.30
2018-05-25T09:35:51.188Z,65.17
2018-05-25T09:36:51.332Z,65.75
2018-05-25T09:37:51.591Z,63.53
2018-05-25T09:38:51.771Z,63.43
2018-05-25T09:39:51.936Z,64.40
2018-05-25T09:40:52.093Z,65.66
2018-05-25T09:41:52.240Z,66.78
2018-05-25T09:42:52.377Z,67.66
2018-05-25T09:43:52.643Z,65.43
2018-05-25T09:44:52.742Z,63.40
2018-05-25T09:45:53.081Z,65.92
2018-05-25T09:46:53.115Z,65.72
2018-05-25T09:47:53.269Z,67.08
2018-05-25T09:48:53.546Z,63.46
2018-05-25T09:49:53.711Z,64.92
2018-05-25T09:50:53.815Z,64.40
2018-05-25T09:51:53.961Z,64.59
2018-05-25T09:52:54.215Z,65.85
2018-05-25T09:53:54.299Z,66.63
2018-05-25T09:54:54.468Z,65.37
2018-05-25T09:55:54.660Z,65.92
2018-05-25T09:56:54.807Z,66.91
2018-05-25T09:57:55.043Z,67.30
2018-05-25T09:58:55.139Z,68.24
2018-05-25T09:59:55.299Z,66.05
2018-05-25T10:00:55.513Z,64.04
2018-05-25T10:01:55.667Z,61.36
2018-05-25T10:02:55.882Z,62.46
2018-05-25T10:03:55.998Z,61.78
2018-05-25T10:04:56.193Z,61.78
2018-05-25T10:05:56.298Z,62.23
2018-05-25T10:06:56.519Z,59.44
2018-05-25T10:07:56.728Z,55.51
2018-05-25T10:08:56.859Z,54.28
2018-05-25T10:09:56.954Z,52.77
2018-05-25T10:10:57.141Z,52.22
2018-05-25T10:11:57.378Z,50.90
2018-05-25T10:12:57.540Z,50.99
2018-05-25T10:13:57.677Z,49.56
2018-05-25T10:14:57.851Z,51.21
2018-05-25T10:15:58.043Z,51.46
2018-05-25T10:16:58.155Z,52.92
2018-05-25T10:17:58.406Z,52.83
2018-05-25T10:18:58.491Z,51.24
2018-05-25T10:19:58.732Z,53.06
2018-05-25T10:20:58.931Z,52.02
2018-05-25T10:21:59.037Z,51.12
2018-05-25T10:22:59.291Z,50.26
2018-05-25T10:23:59.361Z,51.43
2018-05-25T10:24:59.567Z,53.06
2018-05-25T10:25:59.747Z,53.85
2018-05-25T10:26:59.975Z,54.82
2018-05-25T10:28:00.142Z,54.21
2018-05-25T10:29:00.316Z,53.18
2018-05-25T10:30:00.445Z,54.15
2018-05-25T10:31:00.631Z,53.89
2018-05-25T10:32:00.839Z,50.41
2018-05-25T10:33:01.037Z,51.02
2018-05-25T10:34:01.097Z,53.77
2018-05-25T10:35:01.339Z,51.68
2018-05-25T10:36:01.516Z,50.24
2018-05-25T10:37:01.625Z,49.34
2018-05-25T10:38:01.890Z,50.07
2018-05-25T10:39:02.007Z,47.75
2018-05-25T10:40:02.141Z,47.75
2018-05-25T10:41:02.329Z,49.53
2018-05-25T10:42:02.538Z,46.70
2018-05-25T10:43:02.648Z,46.85
2018-05-25T10:44:02.827Z,46.07
2018-05-25T10:45:02.952Z,45.56
2018-05-25T10:46:03.128Z,47.80
2018-05-25T10:47:03.376Z,48.19
2018-05-25T10:48:03.516Z,49.17
2018-05-25T10:49:03.695Z,46.73
2018-05-25T10:50:03.856Z,47.05
2018-05-25T10:51:04.031Z,46.00
2018-05-25T10:52:04.207Z,44.31
2018-05-25T10:53:04.439Z,45.31
2018-05-25T10:54:04.583Z,44.84
2018-05-25T10:55:04.780Z,46.04
2018-05-25T10:56:04.946Z,44.69
2018-05-25T10:57:05.181Z,39.94
2018-05-25T10:58:05.282Z,38.88
2018-05-25T10:59:05.465Z,41.23
2018-05-25T11:00:05.650Z,39.74
2018-05-25T11:01:05.801Z,40.43
2018-05-25T11:02:05.941Z,41.89
2018-05-25T11:03:06.081Z,41.46
2018-05-25T11:04:06.289Z,40.53
2018-05-25T11:05:06.494Z,40.03
2018-05-25T11:06:06.630Z,41.31
2018-05-25T11:07:06.836Z,38.88
2018-05-25T11:08:07.000Z,38.02
2018-05-25T11:09:07.141Z,39.00
2018-05-25T11:10:07.278Z,39.11
2018-05-25T11:11:07.482Z,38.54
2018-05-25T11:12:07.667Z,36.58
2018-05-25T11:13:07.826Z,35.50
2018-05-25T11:14:08.044Z,36.09
2018-05-25T11:15:08.174Z,36.78
2018-05-25T11:16:08.300Z,37.12
2018-05-25T11:17:08.504Z,36.88
2018-05-25T11:18:08.677Z,39.12
2018-05-25T11:19:08.856Z,41.35
2018-05-25T11:20:09.005Z,41.05
2018-05-25T11:21:09.176Z,41.23
2018-05-25T11:22:09.399Z,40.45
2018-05-25T11:23:09.544Z,42.97
2018-05-25T11:24:09.704Z,43.16
2018-05-25T11:25:09.893Z,42.11
2018-05-25T11:26:10.104Z,42.71
2018-05-25T11:27:10.334Z,42.64
2018-05-25T11:28:10.460Z,42.83
2018-05-25T11:29:10.583Z,41.25
2018-05-25T11:30:10.768Z,42.81
2018-05-25T11:31:11.005Z,41.52
2018-05-25T11:32:11.205Z,42.79
2018-05-25T11:33:11.295Z,41.62
2018-05-25T11:34:11.498Z,42.99
2018-05-25T11:35:11.646Z,41.87
2018-05-25T11:36:11.871Z,43.16
2018-05-25T11:37:11.970Z,42.87
2018-05-25T11:38:12.166Z,43.36
2018-05-25T11:39:12.393Z,44.26
2018-05-25T11:40:12.579Z,42.87
2018-05-25T11:41:12.679Z,43.48
2018-05-25T11:42:12.936Z,41.76
2018-05-25T11:43:13.037Z,41.29
2018-05-25T11:44:13.249Z,40.01
2018-05-25T11:45:13.441Z,39.72
2018-05-25T11:46:13.655Z,39.66
2018-05-25T11:47:13.785Z,40.56
2018-05-25T11:48:13.958Z,37.02
2018-05-25T11:49:14.167Z,35.88
2018-05-25T11:50:14.324Z,38.15
2018-05-25T11:51:14.534Z,38.33
2018-05-25T11:52:14.637Z,37.17
2018-05-25T11:53:14.829Z,35.58
2018-05-25T11:54:15.015Z,36.66
2018-05-25T11:55:15.126Z,36.96
2018-05-25T11:56:15.325Z,36.49
2018-05-25T11:57:15.506Z,34.34
2018-05-25T11:58:15.707Z,34.95
2018-05-25T11:59:15.847Z,35.06
2018-05-25T12:00:16.006Z,35.66
2018-05-25T12:01:16.173Z,35.72
2018-05-25T12:02:16.378Z,36.60
2018-05-25T12:03:16.633Z,37.25
2018-05-25T12:04:16.774Z,37.94
2018-05-25T12:05:16.965Z,36.96
2018-05-25T12:06:17.117Z,36.29
2018-05-25T12:07:17.294Z,35.83
2018-05-25T12:08:17.508Z,35.66
2018-05-25T12:09:17.687Z,34.26
2018-05-25T12:10:17.802Z,35.23
2018-05-25T12:11:18.031Z,36.90
2018-05-25T12:12:18.180Z,36.52
2018-05-25T12:13:18.348Z,34.30
2018-05-25T12:14:18.506Z,34.22
2018-05-25T12:15:18.681Z,34.01
2018-05-25T12:16:18.889Z,34.01
2018-05-25T12:17:19.032Z,33.33
2018-05-25T12:18:19.236Z,32.74
2018-05-25T12:19:19.384Z,32.72
2018-05-25T12:20:19.589Z,32.64
2018-05-25T12:21:19.745Z,32.76
2018-05-25T12:22:19.890Z,33.53
2018-05-25T12:23:20.051Z,32.45
2018-05-25T12:24:20.316Z,33.92
2018-05-25T12:25:20.430Z,33.15
2018-05-25T12:26:20.691Z,32.38
2018-05-25T12:27:20.787Z,31.80
2018-05-25T12:28:20.999Z,30.72
2018-05-25T12:29:21.105Z,30.52
2018-05-25T12:30:21.407Z,29.93
2018-05-25T12:31:21.527Z,29.63
2018-05-25T12:32:21.654Z,30.82
2018-05-25T12:33:21.861Z,30.21
2018-05-25T12:34:21.999Z,31.48
2018-05-25T12:35:22.244Z,32.56
2018-05-25T12:36:22.383Z,31.70
2018-05-25T12:37:22.583Z,32.38
2018-05-25T12:38:22.744Z,32.26
2018-05-25T12:39:22.964Z,31.59
2018-05-25T12:40:23.121Z,31.67
2018-05-25T12:41:23.336Z,32.81
2018-05-25T12:42:23.474Z,32.38
2018-05-25T12:43:23.694Z,34.81
2018-05-25T12:44:23.869Z,35.91
2018-05-25T12:45:24.080Z,35.14
2018-05-25T12:46:24.308Z,34.10
2018-05-25T12:47:24.453Z,33.98
2018-05-25T12:48:24.674Z,35.03
2018-05-25T12:49:24.788Z,35.57
2018-05-25T12:50:25.007Z,38.20
2018-05-25T12:51:25.205Z,37.19
2018-05-25T12:52:25.333Z,39.98
2018-05-25T12:53:25.552Z,40.27
2018-05-25T12:54:25.720Z,41.39
2018-05-25T12:55:25.892Z,39.78
2018-05-25T12:56:26.100Z,39.56
2018-05-25T12:57:26.267Z,38.53
2018-05-25T12:58:26.466Z,36.32
2018-05-25T12:59:26.634Z,35.77
2018-05-25T13:00:26.893Z,34.10
2018-05-25T13:01:27.016Z,36.60
2018-05-25T13:02:27.179Z,38.15
2018-05-25T13:03:27.378Z,38.09
2018-05-25T13:04:27.520Z,37.01
2018-05-25T13:05:27.792Z,36.26
2018-05-25T13:06:27.916Z,34.51
2018-05-25T13:07:28.089Z,33.64
2018-05-25T13:08:28.297Z,33.75
2018-05-25T13:09:28.512Z,33.46
2018-05-25T13:10:28.652Z,33.95
2018-05-25T13:11:28.823Z,33.67
2018-05-25T13:12:29.071Z,32.38
2018-05-25T13:13:29.303Z,32.84
2018-05-25T13:14:29.472Z,34.11
2018-05-25T13:15:29.733Z,35.90
2018-05-25T13:16:29.825Z,34.72
2018-05-25T13:17:30.080Z,35.00
2018-05-25T13:18:30.161Z,34.13
2018-05-25T13:19:30.302Z,33.82
2018-05-25T13:20:30.483Z,33.92
2018-05-25T13:21:30.690Z,33.54
2018-05-25T13:22:30.827Z,32.95
2018-05-25T13:23:31.013Z,33.53
2018-05-25T13:24:31.240Z,34.10
2018-05-25T13:25:31.424Z,35.08
2018-05-25T13:26:31.621Z,35.20
2018-05-25T13:27:31.804Z,34.23
2018-05-25T13:28:32.009Z,36.30
2018-05-25T13:29:32.157Z,37.09
2018-05-25T13:30:32.292Z,36.62
2018-05-25T13:31:32.521Z,36.60
2018-05-25T13:32:32.735Z,35.83
2018-05-25T13:33:32.886Z,35.57
2018-05-25T13:34:33.013Z,34.18
2018-05-25T13:35:33.244Z,35.23
2018-05-25T13:36:33.333Z,35.93
2018-05-25T13:37:33.521Z,35.26
2018-05-25T13:38:33.718Z,35.28
2018-05-25T13:39:33.932Z,36.08
2018-05-25T13:40:34.072Z,34.11
2018-05-25T13:41:34.268Z,34.11
2018-05-25T13:42:34.466Z,32.76
2018-05-25T13:43:34.641Z,31.98
2018-05-25T13:44:34.785Z,32.65
2018-05-25T13:45:35.014Z,32.08
2018-05-25T13:46:35.203Z,33.86
2018-05-25T13:47:35.328Z,35.84
2018-05-25T13:48:35.519Z,33.95
2018-05-25T13:49:35.709Z,32.69
2018-05-25T13:50:35.885Z,32.77
2018-05-25T13:51:36.075Z,33.26
2018-05-25T13:52:36.299Z,31.82
2018-05-25T13:53:36.429Z,31.51
2018-05-25T13:54:36.609Z,31.41
2018-05-25T13:55:36.806Z,31.10
2018-05-25T13:56:37.000Z,32.74
2018-05-25T13:57:37.167Z,32.95
2018-05-25T13:58:37.381Z,35.62
2018-05-25T13:59:37.552Z,36.47
2018-05-25T14:00:37.703Z,37.54
2018-05-25T14:01:37.849Z,36.96
2018-05-25T14:02:38.041Z,36.65
2018-05-25T14:03:38.316Z,35.39
2018-05-25T14:04:38.468Z,34.74
2018-05-25T14:05:38.698Z,34.34
2018-05-25T14:06:38.831Z,34.54
2018-05-25T14:07:38.940Z,34.62
2018-05-25T14:08:39.208Z,35.72
2018-05-25T14:09:39.361Z,34.06
2018-05-25T14:10:39.552Z,34.26
2018-05-25T14:11:39.696Z,33.31
2018-05-25T14:12:39.882Z,32.62
2018-05-25T14:13:39.995Z,33.80
2018-05-25T14:14:40.229Z,34.38
2018-05-25T14:15:40.446Z,35.66
2018-05-25T14:16:40.572Z,35.99
2018-05-25T14:17:40.702Z,35.67
2018-05-25T14:18:40.947Z,33.61
2018-05-25T14:19:41.059Z,33.79
2018-05-25T14:20:41.221Z,33.79
2018-05-25T14:21:41.464Z,34.75
2018-05-25T14:22:41.595Z,35.87
2018-05-25T14:23:41.743Z,36.15
2018-05-25T14:24:41.915Z,34.10
2018-05-25T14:25:42.176Z,34.22
2018-05-25T14:26:42.336Z,36.13
2018-05-25T14:27:42.469Z,38.62
2018-05-25T14:28:42.654Z,38.98
2018-05-25T14:29:42.791Z,38.16
2018-05-25T14:30:43.085Z,38.32
2018-05-25T14:31:43.173Z,39.86
2018-05-25T14:32:43.351Z,40.45
2018-05-25T14:33:43.510Z,42.58
2018-05-25T14:34:43.746Z,41.03
2018-05-25T14:35:43.904Z,40.08
2018-05-25T14:36:44.081Z,38.79
2018-05-25T14:37:44.208Z,39.86
2018-05-25T14:38:44.448Z,39.98
2018-05-25T14:39:44.608Z,38.14
2018-05-25T14:40:44.818Z,38.08
2018-05-25T14:41:44.908Z,37.02
2018-05-25T14:42:45.131Z,37.74
2018-05-25T14:43:45.302Z,37.84
2018-05-25T14:44:45.451Z,37.35
2018-05-25T14:45:45.659Z,37.52
2018-05-25T14:46:45.778Z,38.23
2018-05-25T14:47:45.995Z,38.26
2018-05-25T14:48:46.169Z,39.80
2018-05-25T14:49:46.342Z,40.74
2018-05-25T14:50:46.562Z,43.14
2018-05-25T14:51:46.795Z,44.54
2018-05-25T14:52:46.897Z,44.90
2018-05-25T14:53:47.001Z,46.34
2018-05-25T14:54:47.178Z,48.15
2018-05-25T14:55:47.432Z,50.68
2018-05-25T14:56:47.565Z,49.17
2018-05-25T14:57:47.809Z,49.85
2018-05-25T14:58:47.955Z,50.60
2018-05-25T14:59:48.171Z,50.38
2018-05-25T15:00:48.283Z,50.68
2018-05-25T15:01:48.497Z,51.65
2018-05-25T15:02:48.685Z,51.53
2018-05-25T15:03:48.864Z,51.33
2018-05-25T15:04:48.968Z,51.53
2018-05-25T15:05:49.211Z,51.04
2018-05-25T15:06:49.349Z,51.89
2018-05-25T15:07:49.508Z,52.18
2018-05-25T15:08:49.705Z,52.18
2018-05-25T15:09:49.899Z,52.25
2018-05-25T15:10:50.059Z,52.64
2018-05-25T15:11:50.234Z,53.61
2018-05-25T15:12:50.354Z,53.70
2018-05-25T15:13:50.557Z,53.61
2018-05-25T15:14:50.728Z,52.54
2018-05-25T15:15:50.974Z,52.83
2018-05-25T15:16:51.064Z,53.02
2018-05-25T15:17:51.222Z,54.09
2018-05-25T15:18:51.427Z,53.89
2018-05-25T15:19:51.557Z,53.89
2018-05-25T15:20:51.717Z,53.99
2018-05-25T15:21:51.956Z,54.26
2018-05-25T15:22:52.079Z,53.97
2018-05-25T15:23:52.288Z,54.06
2018-05-25T15:24:52.484Z,54.16
2018-05-25T15:25:52.636Z,54.26
2018-05-25T15:26:52.768Z,55.04
2018-05-25T15:27:52.923Z,55.22
2018-05-25T15:28:53.141Z,55.52
2018-05-25T15:29:53.276Z,56.00
2018-05-25T15:30:53.678Z,55.22
2018-05-25T15:31:53.661Z,55.42
2018-05-25T15:32:53.886Z,54.55
2018-05-25T15:33:53.981Z,55.13
2018-05-25T15:34:54.231Z,55.32
2018-05-25T15:35:54.362Z,55.62
2018-05-25T15:36:54.492Z,55.52
2018-05-25T15:37:54.689Z,56.39
2018-05-25T15:38:54.832Z,55.88
2018-05-25T15:39:54.998Z,55.81
2018-05-25T15:40:55.252Z,57.17
2018-05-25T15:41:55.352Z,56.39
2018-05-25T15:42:55.547Z,55.78
2018-05-25T15:43:55.725Z,56.39
2018-05-25T15:44:55.959Z,56.68
2018-05-25T15:45:56.106Z,56.39
2018-05-25T15:46:56.290Z,56.87
2018-05-25T15:47:56.422Z,57.07
2018-05-25T15:48:56.597Z,56.39
2018-05-25T15:49:56.812Z,56.29
2018-05-25T15:50:56.921Z,56.87
2018-05-25T15:51:57.110Z,57.75
2018-05-25T15:52:57.334Z,58.81
2018-05-25T15:53:57.455Z,58.59
2018-05-25T15:54:57.677Z,58.88
2018-05-25T15:55:57.856Z,58.30
2018-05-25T15:56:57.925Z,58.59
2018-05-25T15:57:58.182Z,58.88
2018-05-25T15:58:58.302Z,58.49
2018-05-25T15:59:58.477Z,61.21
2018-05-25T16:00:58.641Z,60.43
2018-05-25T16:01:58.821Z,60.33